Time;durP1;ratioP1;P1;durP2;ratioP2;P2;SDS_P1;SDS_P2;PMS_P1;PMS_P2;Temp;Humidity;BMP_temperature;BMP_pressure;BME280_temperature;BME280_humidity;BME280_pressure;Samples;Min_cycle;Max_cycle;Signal;HPM_P1;HPM_P2
2022/09/24 04:16:23;;;;;;;8.75;4.38;;;;;;;10.69;100.00;99828.59;5524490;23;20049;-62
2022/09/24 04:18:49;;;;;;;5.03;3.92;;;;;;;10.68;100.00;99824.28;4972986;28;20406;-62
2022/09/24 04:21:15;;;;;;;10.10;5.10;;;;;;;10.63;100.00;99827.53;4972661;28;20251;-64
2022/09/24 04:23:40;;;;;;;6.32;4.20;;;;;;;10.60;100.00;99810.06;4973188;28;20178;-62
2022/09/24 04:26:06;;;;;;;8.50;3.85;;;;;;;10.69;100.00;99818.78;4972929;28;20038;-64
2022/09/24 04:28:31;;;;;;;5.80;4.20;;;;;;;10.68;100.00;99819.78;4972884;28;20035;-63
2022/09/24 04:30:57;;;;;;;5.88;4.32;;;;;;;10.67;100.00;99815.47;4973153;28;20188;-64
2022/09/24 04:33:22;;;;;;;7.50;4.45;;;;;;;10.66;100.00;99823.66;4972998;28;20097;-63
2022/09/24 04:35:48;;;;;;;8.00;3.58;;;;;;;10.67;100.00;99826.13;4972821;28;20205;-63
2022/09/24 04:38:13;;;;;;;6.88;4.18;;;;;;;10.64;100.00;99820.38;4972873;28;20030;-64
2022/09/24 04:40:38;;;;;;;7.75;4.18;;;;;;;10.67;100.00;99817.31;4972533;28;20038;-63
2022/09/24 04:43:05;;;;;;;10.10;4.57;;;;;;;10.67;100.00;99819.97;4971511;28;20046;-64
2022/09/24 04:45:31;;;;;;;10.90;3.83;;;;;;;10.66;100.00;99819.16;4972789;28;20149;-62
2022/09/24 04:47:57;;;;;;;6.93;4.32;;;;;;;10.57;100.00;99812.28;4972675;28;20477;-64
2022/09/24 04:50:28;;;;;;;8.98;5.00;;;;;;;10.62;100.00;99820.53;4972491;28;20055;-62
2022/09/24 04:52:54;;;;;;;6.30;3.88;;;;;;;10.59;100.00;99818.25;4971742;28;20449;-62
2022/09/24 04:55:21;;;;;;;6.47;4.00;;;;;;;10.52;100.00;99822.66;4972735;28;20034;-63
2022/09/24 04:57:47;;;;;;;8.90;4.88;;;;;;;10.51;100.00;99826.34;4971437;28;20434;-63
2022/09/24 05:00:16;;;;;;;9.90;4.72;;;;;;;10.48;100.00;99818.69;4974193;28;20251;-64
2022/09/24 05:02:42;;;;;;;6.75;4.28;;;;;;;10.50;100.00;99827.34;4976805;28;20387;-63
2022/09/24 05:05:08;;;;;;;7.72;4.07;;;;;;;10.57;100.00;99825.59;4976604;28;20066;-63
2022/09/24 05:07:34;;;;;;;7.88;4.55;;;;;;;10.51;100.00;99816.50;4976438;28;20039;-63
2022/09/24 05:09:59;;;;;;;6.35;4.22;;;;;;;10.50;100.00;99825.50;4976407;28;20490;-62
2022/09/24 05:12:25;;;;;;;7.45;4.05;;;;;;;10.49;100.00;99815.00;4976211;28;20050;-62
2022/09/24 05:14:50;;;;;;;8.15;4.18;;;;;;;10.50;100.00;99814.84;4976502;28;20039;-63
2022/09/24 05:17:16;;;;;;;8.30;4.60;;;;;;;10.53;100.00;99827.78;4976260;28;20189;-63
2022/09/24 05:19:41;;;;;;;5.57;4.10;;;;;;;10.46;100.00;99816.22;4976485;28;20068;-61
2022/09/24 05:22:07;;;;;;;7.07;4.35;;;;;;;10.42;100.00;99828.22;4975952;28;20047;-61
2022/09/24 05:24:32;;;;;;;7.18;4.10;;;;;;;10.48;100.00;99814.19;4976275;28;20421;-61
2022/09/24 05:27:09;;;;;;;6.38;3.78;;;;;;;10.43;100.00;99824.59;4976144;28;20041;-63
2022/09/24 05:29:37;;;;;;;6.90;4.07;;;;;;;10.45;100.00;99816.41;4976332;28;20520;-63
2022/09/24 05:32:04;;;;;;;7.78;4.22;;;;;;;10.41;100.00;99826.59;4976027;28;20038;-63
2022/09/24 05:34:30;;;;;;;11.50;4.70;;;;;;;10.45;100.00;99833.22;4976099;28;20037;-62
2022/09/24 05:36:56;;;;;;;5.90;3.85;;;;;;;10.48;100.00;99838.16;4976125;28;20027;-62
2022/09/24 05:39:21;;;;;;;6.00;4.22;;;;;;;10.51;100.00;99829.81;4975817;28;20113;-63
2022/09/24 05:41:47;;;;;;;6.90;4.43;;;;;;;10.54;100.00;99832.09;4975632;28;20085;-63
2022/09/24 05:44:12;;;;;;;8.00;4.70;;;;;;;10.55;100.00;99839.06;4974721;28;20054;-63
2022/09/24 05:46:37;;;;;;;8.25;4.78;;;;;;;10.52;100.00;99841.28;4975756;28;20098;-63
2022/09/24 05:49:03;;;;;;;11.50;5.30;;;;;;;10.57;100.00;99841.56;4975764;28;20090;-62
2022/09/24 05:51:28;;;;;;;6.22;4.10;;;;;;;10.62;100.00;99835.69;4975357;28;20101;-66
2022/09/24 05:53:54;;;;;;;7.03;4.45;;;;;;;10.64;100.00;99839.00;4975708;28;20078;-62
2022/09/24 05:56:19;;;;;;;7.60;4.05;;;;;;;10.56;100.00;99838.09;4975576;28;20042;-62
2022/09/24 05:58:48;;;;;;;7.28;4.35;;;;;;;10.62;100.00;99835.69;4975546;28;20034;-62
2022/09/24 06:01:13;;;;;;;9.68;4.85;;;;;;;10.64;100.00;99834.50;4975207;28;20049;-51
2022/09/24 06:03:39;;;;;;;7.35;4.15;;;;;;;10.68;100.00;99838.44;4975507;28;20043;-50
2022/09/24 06:06:05;;;;;;;6.57;4.60;;;;;;;10.64;100.00;99837.16;4975356;28;20042;-52
2022/09/24 06:08:33;;;;;;;8.43;4.63;;;;;;;10.69;100.00;99836.59;4975436;28;20070;-50
2022/09/24 06:11:01;;;;;;;8.73;4.63;;;;;;;10.72;100.00;99842.41;4974060;28;20035;-49
2022/09/24 06:13:27;;;;;;;4.82;3.85;;;;;;;10.70;100.00;99833.78;4975683;28;20038;-62
2022/09/24 06:16:00;;;;;;;7.35;3.80;;;;;;;10.67;100.00;99835.97;4975665;28;20054;-63
2022/09/24 06:18:25;;;;;;;6.75;4.63;;;;;;;10.69;100.00;99844.59;4975261;28;20035;-63
2022/09/24 06:20:51;;;;;;;7.05;4.28;;;;;;;10.73;100.00;99853.88;4975177;28;20046;-63
2022/09/24 06:23:16;;;;;;;6.00;4.53;;;;;;;10.74;100.00;99850.19;4975185;28;20050;-62
2022/09/24 06:25:42;;;;;;;8.30;4.63;;;;;;;10.77;100.00;99847.19;4975121;28;20082;-62
2022/09/24 06:28:08;;;;;;;6.05;4.30;;;;;;;10.82;100.00;99844.78;4975043;28;20504;-62
2022/09/24 06:30:37;;;;;;;6.35;4.18;;;;;;;10.87;100.00;99848.53;4974735;28;20046;-63
2022/09/24 06:33:09;;;;;;;7.13;4.57;;;;;;;10.95;100.00;99844.94;4974947;28;20041;-63
2022/09/24 06:35:38;;;;;;;8.45;4.28;;;;;;;11.01;100.00;99857.53;4974864;28;20058;-62
2022/09/24 06:38:05;;;;;;;9.00;4.28;;;;;;;11.05;100.00;99858.81;4974931;28;20027;-63
2022/09/24 06:40:31;;;;;;;9.80;5.03;;;;;;;11.14;100.00;99867.53;4974514;28;20248;-62
2022/09/24 06:42:57;;;;;;;9.50;5.25;;;;;;;11.20;100.00;99863.31;4974806;28;20486;-62
2022/09/24 06:45:24;;;;;;;7.40;4.70;;;;;;;11.25;100.00;99863.56;4974600;28;20468;-61
2022/09/24 06:47:57;;;;;;;8.80;5.13;;;;;;;11.33;100.00;99869.63;4974852;28;20029;-62
2022/09/24 06:50:25;;;;;;;10.13;5.30;;;;;;;11.41;100.00;99864.19;4974276;28;20074;-62
2022/09/24 06:52:51;;;;;;;9.60;5.88;;;;;;;11.46;100.00;99860.13;4974617;28;20042;-63
2022/09/24 06:55:17;;;;;;;9.35;4.88;;;;;;;11.52;100.00;99857.53;4974471;28;20037;-62
2022/09/24 06:57:44;;;;;;;11.32;5.68;;;;;;;11.61;100.00;99852.94;4974543;28;20490;-62
2022/09/24 07:00:11;;;;;;;7.80;4.15;;;;;;;11.65;100.00;99852.34;4974303;28;20035;-61
2022/09/24 07:02:36;;;;;;;8.73;5.13;;;;;;;11.72;100.00;99862.25;4974586;28;20534;-63
2022/09/24 07:05:02;;;;;;;9.15;4.45;;;;;;;11.69;100.00;99850.94;4974484;28;20046;-63
2022/09/24 07:07:33;;;;;;;6.70;4.80;;;;;;;11.77;100.00;99867.84;4974160;28;20115;-61
2022/09/24 07:10:06;;;;;;;8.48;5.35;;;;;;;11.80;100.00;99865.63;4974215;28;20054;-62
2022/09/24 07:12:33;;;;;;;7.05;4.90;;;;;;;11.86;100.00;99867.56;4972882;28;20046;-63
2022/09/24 07:14:59;;;;;;;9.90;5.30;;;;;;;11.93;100.00;99879.16;4974354;28;20394;-63
2022/09/24 07:17:25;;;;;;;10.35;5.22;;;;;;;11.91;100.00;99867.81;4974030;28;20031;-63
2022/09/24 07:19:52;;;;;;;8.32;4.95;;;;;;;12.02;100.00;99871.81;4974205;28;20510;-62
2022/09/24 07:22:18;;;;;;;8.13;4.55;;;;;;;12.05;100.00;99871.44;4973333;28;20522;-60
2022/09/24 07:24:43;;;;;;;9.57;5.78;;;;;;;12.09;100.00;99870.03;4973932;28;20662;-61
2022/09/24 07:27:09;;;;;;;7.72;5.30;;;;;;;12.14;100.00;99870.28;4973793;28;20035;-63
2022/09/24 07:29:35;;;;;;;8.45;5.88;;;;;;;12.21;100.00;99871.16;4973950;28;20585;-63
2022/09/24 07:32:02;;;;;;;15.85;6.72;;;;;;;12.28;100.00;99881.09;4973549;28;20557;-61
2022/09/24 07:34:27;;;;;;;11.75;5.32;;;;;;;12.34;100.00;99888.31;4973819;28;20043;-62
2022/09/24 07:36:54;;;;;;;9.70;5.57;;;;;;;12.40;100.00;99887.56;4973715;28;20042;-61
2022/09/24 07:39:21;;;;;;;10.00;5.95;;;;;;;12.43;100.00;99897.84;4973733;28;20070;-62
2022/09/24 07:41:46;;;;;;;10.18;6.07;;;;;;;12.48;100.00;99898.09;4973763;28;20047;-63
2022/09/24 07:44:12;;;;;;;10.27;6.35;;;;;;;12.55;100.00;99896.28;4973606;28;20383;-63
2022/09/24 07:46:37;;;;;;;11.77;6.15;;;;;;;12.60;100.00;99898.38;4973419;28;20109;-61
2022/09/24 07:49:03;;;;;;;10.38;6.85;;;;;;;12.67;100.00;99907.28;4972379;28;20521;-61
2022/09/24 07:51:28;;;;;;;10.32;6.88;;;;;;;12.70;100.00;99904.19;4973233;28;20031;-61
2022/09/24 07:53:55;;;;;;;14.57;6.78;;;;;;;12.71;100.00;99897.81;4973474;28;20031;-61
2022/09/24 07:56:22;;;;;;;14.30;6.47;;;;;;;12.74;100.00;99897.44;4973230;28;20043;-63
2022/09/24 07:58:51;;;;;;;11.45;7.15;;;;;;;12.71;100.00;99898.69;4973435;28;20217;-60
2022/09/24 08:01:18;;;;;;;10.85;5.70;;;;;;;12.74;100.00;99895.59;4973122;28;20393;-63
2022/09/24 08:03:45;;;;;;;58.53;25.67;;;;;;;12.76;100.00;99885.53;4973428;28;20039;-63
2022/09/24 08:06:11;;;;;;;18.00;10.15;;;;;;;12.80;100.00;99895.84;4973219;28;20342;-63
2022/09/24 08:08:37;;;;;;;13.02;7.28;;;;;;;12.86;100.00;99900.41;4973063;28;20070;-63
2022/09/24 08:11:04;;;;;;;14.98;8.32;;;;;;;12.85;100.00;99886.22;4973028;28;20046;-63
2022/09/24 08:13:29;;;;;;;18.55;10.38;;;;;;;12.90;100.00;99889.09;4973206;28;20125;-62
2022/09/24 08:15:58;;;;;;;12.82;7.45;;;;;;;12.94;100.00;99892.22;4972980;28;20446;-63
2022/09/24 08:18:23;;;;;;;10.18;6.97;;;;;;;12.98;100.00;99899.66;4973029;28;20027;-63
2022/09/24 08:20:49;;;;;;;14.20;8.38;;;;;;;13.08;100.00;99895.78;4972765;28;20486;-63
2022/09/24 08:23:14;;;;;;;20.10;9.88;;;;;;;13.17;100.00;99900.81;4972921;28;20047;-63
2022/09/24 08:25:40;;;;;;;12.23;6.82;;;;;;;13.28;100.00;99894.06;4972985;28;20053;-63
2022/09/24 08:28:07;;;;;;;14.32;7.82;;;;;;;13.37;100.00;99900.09;4972943;28;20402;-64
2022/09/24 08:30:34;;;;;;;12.40;7.57;;;;;;;13.49;100.00;99893.13;4972729;28;20061;-63
2022/09/24 08:32:59;;;;;;;13.00;7.55;;;;;;;13.56;100.00;99888.59;4973048;28;20034;-64
2022/09/24 08:35:25;;;;;;;12.13;7.43;;;;;;;13.63;100.00;99896.66;4972040;28;20130;-63
2022/09/24 08:37:53;;;;;;;13.95;7.63;;;;;;;13.70;99.65;99894.84;4972892;28;20043;-63
2022/09/24 08:40:22;;;;;;;13.18;7.47;;;;;;;13.77;98.73;99891.16;4972518;28;20062;-62
2022/09/24 08:43:13;;;;;;;16.52;7.50;;;;;;;13.88;99.96;99902.28;4972888;28;20619;-63
2022/09/24 08:48:36;;;;;;;14.63;6.90;;;;;;;14.04;98.03;99902.75;4972593;28;20459;-63
2022/09/24 08:51:06;;;;;;;14.85;6.97;;;;;;;14.11;97.47;99894.72;4972449;28;20047;-63
2022/09/24 08:53:45;;;;;;;14.55;7.80;;;;;;;14.18;96.64;99900.91;4972657;28;20049;-64
2022/09/24 08:56:11;;;;;;;12.65;6.40;;;;;;;14.27;96.17;99896.16;4972650;28;20066;-63
2022/09/24 08:58:45;;;;;;;11.93;7.65;;;;;;;14.24;94.08;99912.66;4972643;28;20647;-62
2022/09/24 09:01:11;;;;;;;13.10;7.20;;;;;;;14.35;93.30;99906.69;4972393;28;20441;-63
2022/09/24 09:03:46;;;;;;;13.10;8.02;;;;;;;14.31;95.94;99900.91;4972353;28;20043;-63
2022/09/24 09:06:35;;;;;;;14.68;7.90;;;;;;;14.39;96.53;99908.72;4972535;28;20063;-63
2022/09/24 09:09:21;;;;;;;13.80;7.45;;;;;;;14.39;94.12;99915.94;4972338;28;20031;-63
2022/09/24 09:11:50;;;;;;;10.98;6.45;;;;;;;14.44;94.19;99913.47;4972207;28;20067;-62
2022/09/24 09:14:18;;;;;;;14.23;6.93;;;;;;;14.47;93.09;99915.75;4972458;28;20034;-62
2022/09/24 09:16:59;;;;;;;11.55;7.47;;;;;;;14.47;94.24;99912.25;4972277;28;20039;-60
2022/09/24 09:19:29;;;;;;;12.40;7.05;;;;;;;14.47;96.09;99912.25;4972374;28;20050;-62
2022/09/24 09:22:12;;;;;;;14.45;7.15;;;;;;;14.45;94.43;99909.75;4972129;28;20042;-61
2022/09/24 09:24:46;;;;;;;13.18;6.65;;;;;;;14.55;94.90;99909.41;4972416;28;20058;-62
2022/09/24 09:27:13;;;;;;;13.23;6.93;;;;;;;14.66;94.39;99908.75;4972259;28;20525;-63
2022/09/24 09:29:45;;;;;;;10.27;6.85;;;;;;;14.71;92.52;99911.63;4972261;28;20053;-62
2022/09/24 09:32:25;;;;;;;11.65;6.53;;;;;;;14.79;92.01;99914.09;4971975;28;20043;-62
2022/09/24 09:35:18;;;;;;;10.43;6.55;;;;;;;14.86;93.44;99916.75;4972298;28;20046;-62
2022/09/24 09:37:52;;;;;;;13.15;7.18;;;;;;;14.81;90.83;99922.78;4972130;28;20042;-61
2022/09/24 09:40:30;;;;;;;15.48;7.03;;;;;;;14.86;90.63;99908.72;4971907;28;20039;-62
2022/09/24 09:43:07;;;;;;;10.95;6.32;;;;;;;14.93;90.74;99917.56;4972295;28;20039;-63
2022/09/24 09:45:54;;;;;;;10.57;6.38;;;;;;;14.95;90.51;99920.06;4973047;28;20038;-60
2022/09/24 09:48:23;;;;;;;9.30;6.05;;;;;;;14.99;90.48;99911.38;4975791;28;20034;-59
2022/09/24 09:50:51;;;;;;;10.43;6.18;;;;;;;15.04;90.86;99911.56;4975361;28;20074;-61
2022/09/24 09:53:30;;;;;;;10.23;5.35;;;;;;;15.09;90.76;99908.25;4974340;28;20050;-62
2022/09/24 09:55:58;;;;;;;8.07;5.40;;;;;;;15.09;91.67;99910.94;4975696;28;20134;-63
2022/09/24 09:58:26;;;;;;;13.80;6.13;;;;;;;15.08;91.67;99912.81;4975608;28;20482;-61
2022/09/24 10:00:52;;;;;;;9.38;5.72;;;;;;;15.02;92.17;99907.47;4975456;28;20050;-61
2022/09/24 10:03:33;;;;;;;12.05;6.13;;;;;;;15.04;91.55;99905.38;4975519;28;20035;-63
2022/09/24 10:06:01;;;;;;;8.55;5.25;;;;;;;14.96;91.54;99905.63;4975309;28;20066;-63
2022/09/24 10:08:27;;;;;;;9.77;6.18;;;;;;;15.01;90.48;99897.78;4974069;28;20489;-63
2022/09/24 10:10:54;;;;;;;9.00;5.63;;;;;;;15.02;90.85;99900.25;4975084;28;20122;-61
2022/09/24 10:13:19;;;;;;;11.07;5.90;;;;;;;14.99;90.77;99903.31;4975437;28;20043;-63
2022/09/24 10:15:51;;;;;;;8.40;5.65;;;;;;;14.99;90.25;99899.81;4975035;28;20042;-63
2022/09/24 10:18:42;;;;;;;9.30;5.88;;;;;;;15.01;91.20;99903.97;4975258;28;20066;-64
2022/09/24 10:21:11;;;;;;;8.48;5.65;;;;;;;15.06;91.03;99908.66;4974980;28;20129;-63
2022/09/24 10:23:48;;;;;;;7.45;5.28;;;;;;;15.17;91.48;99908.84;4975280;28;20039;-63
2022/09/24 10:26:14;;;;;;;11.73;5.97;;;;;;;15.23;93.13;99907.19;4975129;28;20042;-62
2022/09/24 10:31:33;;;;;;;10.02;6.15;;;;;;;15.37;94.14;99905.28;4975354;28;20101;-64
2022/09/24 10:34:00;;;;;;;11.75;6.22;;;;;;;15.45;89.50;99905.03;4975149;28;20425;-63
2022/09/24 10:36:28;;;;;;;8.90;5.93;;;;;;;15.41;93.19;99907.34;4974975;28;20051;-64
2022/09/24 10:39:14;;;;;;;9.82;6.45;;;;;;;15.51;90.88;99904.16;4974939;28;20053;-63
2022/09/24 10:41:47;;;;;;;10.90;5.30;;;;;;;15.59;91.97;99900.44;4972063;28;20043;-62
2022/09/24 10:44:15;;;;;;;9.48;6.00;;;;;;;15.67;93.23;99897.53;4974836;28;20038;-63
2022/09/24 10:46:58;;;;;;;10.93;5.93;;;;;;;15.80;92.18;99894.78;4974664;28;20121;-63
2022/09/24 10:49:42;;;;;;;9.30;5.80;;;;;;;15.99;94.26;99904.56;4974843;28;20482;-63
2022/09/24 10:52:28;;;;;;;9.82;6.18;;;;;;;15.85;89.50;99900.34;4974518;28;20039;-63
2022/09/24 10:55:13;;;;;;;9.95;5.68;;;;;;;16.02;91.63;99890.69;4974732;28;20580;-63
2022/09/24 10:58:12;;;;;;;8.35;5.43;;;;;;;16.11;91.68;99891.28;4973691;28;20035;-63
2022/09/24 11:00:57;;;;;;;8.07;5.55;;;;;;;16.22;92.56;99885.19;4973298;28;20070;-63
2022/09/24 11:03:39;;;;;;;10.00;5.28;;;;;;;16.31;92.84;99888.44;4974263;28;20050;-64
2022/09/24 11:06:28;;;;;;;8.50;5.28;;;;;;;16.41;92.34;99883.38;4974265;28;20038;-63
2022/09/24 11:09:32;;;;;;;13.10;5.20;;;;;;;16.45;92.79;99883.78;4974172;28;20031;-64
2022/09/24 11:12:19;;;;;;;8.30;5.55;;;;;;;16.22;94.83;99873.59;4933566;28;20510;-63
2022/09/24 11:15:22;;;;;;;9.60;5.45;;;;;;;16.30;93.69;99878.72;4973938;28;20101;-63
2022/09/24 11:17:48;;;;;;;8.05;4.95;;;;;;;16.43;94.10;99875.09;4972048;28;20501;-64
2022/09/24 11:20:13;;;;;;;8.52;5.40;;;;;;;16.54;94.16;99880.56;4973064;28;20093;-63
2022/09/24 11:23:06;;;;;;;13.63;5.22;;;;;;;16.63;91.23;99878.44;4973773;28;20162;-64
2022/09/24 11:25:46;;;;;;;7.55;5.18;;;;;;;16.83;91.43;99880.13;4973867;28;20066;-63
2022/09/24 11:28:34;;;;;;;8.25;5.00;;;;;;;17.01;90.71;99874.75;4973630;28;20089;-63
2022/09/24 11:31:05;;;;;;;7.32;4.78;;;;;;;17.31;89.04;99866.75;4972997;28;20046;-64
2022/09/24 11:33:52;;;;;;;8.88;5.38;;;;;;;17.49;89.02;99868.59;4973026;28;20038;-63
2022/09/24 11:36:48;;;;;;;12.38;5.80;;;;;;;17.64;87.60;99855.53;4973244;28;20031;-63
2022/09/24 11:39:40;;;;;;;9.88;5.13;;;;;;;17.71;90.56;99860.81;4972951;28;20094;-63
2022/09/24 11:42:18;;;;;;;11.82;5.60;;;;;;;17.87;89.64;99862.91;4970658;28;20967;-63
2022/09/24 11:44:56;;;;;;;11.00;5.78;;;;;;;17.63;94.83;99860.09;4970706;28;20100;-62
2022/09/24 11:47:35;;;;;;;;;;;;;;;17.78;93.41;99856.19;4973765;28;20062;-63
2022/09/24 11:50:14;;;;;;;8.82;5.50;;;;;;;17.67;93.47;99854.25;4972429;28;19918;-64
2022/09/24 11:52:50;;;;;;;9.65;5.35;;;;;;;17.69;92.02;99847.59;4971993;28;20493;-64
2022/09/24 11:55:39;;;;;;;9.52;5.65;;;;;;;17.78;92.66;99846.22;4972300;28;20067;-62
2022/09/24 11:58:19;;;;;;;8.50;5.30;;;;;;;17.68;91.60;99839.75;4971537;28;20038;-62
2022/09/24 12:00:53;;;;;;;8.13;5.45;;;;;;;17.82;90.68;99844.72;4971085;28;20138;-61
2022/09/24 12:03:27;;;;;;;8.05;5.38;;;;;;;17.95;90.34;99837.50;4972315;28;20043;-62
2022/09/24 12:06:06;;;;;;;11.52;5.80;;;;;;;18.27;93.58;99843.41;4972224;28;20045;-64
2022/09/24 12:08:41;;;;;;;9.57;4.60;;;;;;;18.91;92.39;99838.97;4972005;28;20046;-64
2022/09/24 12:11:17;;;;;;;8.57;5.43;;;;;;;19.44;88.97;99836.00;4970745;28;20047;-64
2022/09/24 12:13:51;;;;;;;8.13;4.93;;;;;;;19.66;85.71;99835.34;4971691;28;20034;-64
2022/09/24 12:16:21;;;;;;;5.50;4.43;;;;;;;19.76;81.71;99828.25;4971538;28;20077;-64
2022/09/24 12:19:00;;;;;;;6.13;4.40;;;;;;;19.63;82.29;99830.44;4971083;28;20027;-64
2022/09/24 12:21:32;;;;;;;6.25;4.07;;;;;;;19.46;83.19;99830.34;4971661;28;20049;-62
2022/09/24 12:24:04;;;;;;;5.80;4.55;;;;;;;19.43;83.05;99831.66;4970929;28;20042;-64
2022/09/24 12:26:36;;;;;;;9.23;4.70;;;;;;;19.27;84.51;99824.31;4971817;28;20133;-62
2022/09/24 12:35:25;;;;;;;8.18;4.40;;;;;;;18.91;84.33;99817.38;4971530;28;20070;-62
2022/09/24 12:37:59;;;;;;;7.68;4.18;;;;;;;19.20;84.24;99816.34;4971704;28;20089;-63
2022/09/24 12:40:54;;;;;;;7.22;3.72;;;;;;;19.20;85.62;99820.94;4970341;28;20187;-62
2022/09/24 12:43:42;;;;;;;8.10;4.20;;;;;;;19.45;85.32;99816.03;4971149;28;20393;-63
2022/09/24 12:46:16;;;;;;;6.40;3.90;;;;;;;19.53;81.83;99814.81;4971881;28;20081;-62
2022/09/24 12:48:44;;;;;;;6.82;3.58;;;;;;;19.82;80.41;99807.50;4971498;28;20046;-63
2022/09/24 12:51:10;;;;;;;9.40;4.25;;;;;;;20.03;81.23;99800.56;4971066;28;20039;-62
2022/09/24 12:53:39;;;;;;;6.03;4.53;;;;;;;20.00;80.16;99801.03;4971179;28;20053;-63
2022/09/24 12:56:06;;;;;;;5.93;3.88;;;;;;;20.95;76.17;99805.44;4971334;28;20308;-64
2022/09/24 12:58:42;;;;;;;7.95;4.03;;;;;;;21.72;71.15;99806.31;4972531;28;20135;-61
2022/09/24 13:01:23;;;;;;;7.63;4.37;;;;;;;21.81;71.69;99802.03;4971781;28;20045;-63
2022/09/24 13:04:13;;;;;;;5.07;3.47;;;;;;;22.05;68.43;99805.22;4971719;28;20031;-63
2022/09/24 13:06:39;;;;;;;4.22;3.05;;;;;;;21.99;67.11;99793.53;4972313;28;20104;-64
2022/09/24 13:09:26;;;;;;;5.43;3.42;;;;;;;21.91;68.27;99796.72;4972253;28;20449;-63
2022/09/24 13:12:14;;;;;;;6.75;3.50;;;;;;;21.93;68.65;99789.94;4972350;28;20130;-62
2022/09/24 13:14:45;;;;;;;5.15;3.78;;;;;;;21.73;70.92;99795.19;4972696;28;20041;-63
2022/09/24 13:17:14;;;;;;;3.75;2.58;;;;;;;22.73;65.73;99792.66;4972283;28;20068;-63
2022/09/24 13:19:43;;;;;;;6.50;3.20;;;;;;;23.43;64.69;99788.59;4972742;28;20078;-63
2022/09/24 13:22:21;;;;;;;4.60;3.13;;;;;;;23.05;61.41;99784.41;4975535;28;20043;-64
2022/09/24 13:24:49;;;;;;;4.15;3.00;;;;;;;22.78;61.68;99778.31;4976330;28;20508;-62
2022/09/24 13:27:30;;;;;;;4.03;2.55;;;;;;;22.70;63.93;99782.34;4976107;28;20090;-63
2022/09/24 13:30:12;;;;;;;4.30;2.60;;;;;;;22.52;66.15;99777.34;4976302;28;20462;-63
2022/09/24 13:32:45;;;;;;;4.40;2.67;;;;;;;22.44;65.92;99778.69;4976142;28;20030;-63
2022/09/24 13:35:16;;;;;;;6.22;3.08;;;;;;;21.93;66.09;99779.09;4976079;28;20118;-63
2022/09/24 13:37:56;;;;;;;5.38;2.90;;;;;;;21.99;65.98;99784.56;4976109;28;20046;-63
2022/09/24 13:40:26;;;;;;;4.18;2.50;;;;;;;21.55;68.45;99776.59;4975788;28;20045;-61
2022/09/24 13:43:03;;;;;;;4.03;2.55;;;;;;;21.20;71.63;99780.53;4975955;28;20045;-62
2022/09/24 13:45:30;;;;;;;3.50;2.47;;;;;;;21.57;71.58;99772.53;4975911;28;20039;-63
2022/09/24 13:48:03;;;;;;;3.58;2.40;;;;;;;21.97;70.04;99773.97;4975840;28;20093;-63
2022/09/24 13:50:45;;;;;;;2.65;2.13;;;;;;;22.50;67.56;99774.09;4975428;28;20101;-63
2022/09/24 13:53:21;;;;;;;3.22;2.17;;;;;;;22.79;65.96;99775.31;4975799;28;20043;-64
2022/09/24 13:55:49;;;;;;;2.80;2.22;;;;;;;22.46;61.54;99765.66;4975643;28;20042;-64
2022/09/24 13:58:30;;;;;;;4.93;2.30;;;;;;;21.68;65.96;99762.63;4975650;28;20447;-62
2022/09/24 14:01:04;;;;;;;4.95;2.28;;;;;;;21.52;65.36;99761.69;4975137;28;20085;-63
2022/09/24 14:03:35;;;;;;;2.67;1.98;;;;;;;21.34;62.78;99759.31;4975690;28;20041;-64
2022/09/24 14:06:16;;;;;;;3.80;2.35;;;;;;;21.20;67.99;99769.72;4975511;28;20050;-64
2022/09/24 14:08:45;;;;;;;2.70;2.08;;;;;;;21.20;66.42;99758.88;4975419;28;20487;-63
2022/09/24 14:11:20;;;;;;;3.10;2.20;;;;;;;20.66;68.58;99758.75;4974722;28;20035;-64
2022/09/24 14:13:46;;;;;;;3.10;2.15;;;;;;;20.89;66.28;99760.41;4975328;28;20463;-63
2022/09/24 14:16:17;;;;;;;2.63;2.13;;;;;;;20.56;68.47;99755.94;4975007;28;20052;-51
2022/09/24 14:18:43;;;;;;;2.95;1.65;;;;;;;20.35;71.83;99756.72;4975341;28;20522;-64
2022/09/24 14:21:10;;;;;;;3.72;2.40;;;;;;;20.48;70.72;99756.38;4975045;28;20069;-64
2022/09/24 14:23:42;;;;;;;;;;;;;;;20.36;71.18;99753.75;4975560;28;20035;-64
2022/09/24 14:26:26;;;;;;;2.40;2.00;;;;;;;20.30;71.90;99741.22;4974869;28;19945;-63
2022/09/24 14:28:52;;;;;;;6.55;3.03;;;;;;;20.18;72.45;99754.84;4975149;28;20117;-63
2022/09/24 14:31:17;;;;;;;5.40;2.92;;;;;;;19.94;74.21;99753.38;4974561;28;20050;-63
2022/09/24 14:33:43;;;;;;;4.55;2.88;;;;;;;19.95;73.67;99755.84;4973999;28;20053;-64
2022/09/24 14:36:11;;;;;;;3.17;2.53;;;;;;;19.55;75.72;99753.25;4974910;28;20043;-64
2022/09/24 14:39:00;;;;;;;3.78;2.72;;;;;;;19.70;75.33;99753.56;4974852;28;20117;-63
2022/09/24 14:41:31;;;;;;;4.10;3.00;;;;;;;19.72;75.25;99748.72;4974571;28;20487;-63
2022/09/24 14:44:02;;;;;;;3.40;2.92;;;;;;;19.45;78.41;99755.78;4974754;28;20043;-64
2022/09/24 14:46:48;;;;;;;4.97;2.95;;;;;;;19.48;77.66;99749.88;4974755;28;20035;-63
2022/09/24 14:49:23;;;;;;;5.55;2.53;;;;;;;19.42;78.45;99750.84;4973319;28;20043;-63
2022/09/24 14:51:51;;;;;;;4.72;2.90;;;;;;;19.35;79.00;99748.31;4974364;28;20509;-64
2022/09/24 14:54:35;;;;;;;3.75;2.53;;;;;;;19.40;79.43;99747.59;4974707;28;20125;-64
2022/09/24 14:57:15;;;;;;;3.80;2.33;;;;;;;19.35;78.21;99750.19;4974594;28;20049;-64
2022/09/24 14:59:41;;;;;;;4.70;2.70;;;;;;;19.34;78.31;99743.97;4974529;28;20494;-64
2022/09/24 15:02:20;;;;;;;4.35;3.15;;;;;;;19.27;78.25;99747.88;4974323;28;20092;-64
2022/09/24 15:04:49;;;;;;;3.58;3.03;;;;;;;19.27;77.08;99747.88;4974520;28;20121;-64
2022/09/24 15:07:26;;;;;;;3.17;2.65;;;;;;;19.20;75.90;99748.84;4974276;28;20047;-64
2022/09/24 15:09:56;;;;;;;4.40;2.75;;;;;;;19.24;76.27;99743.81;4974485;28;20137;-64
2022/09/24 15:12:34;;;;;;;4.25;2.30;;;;;;;19.14;76.84;99746.28;4974171;28;20042;-62
2022/09/24 15:15:04;;;;;;;;;;;;;;;19.06;76.68;99749.38;4974697;28;20103;-64
2022/09/24 15:17:32;;;;;;;3.03;2.20;;;;;;;19.11;77.43;99733.31;4974111;28;20022;-63
2022/09/24 15:19:57;;;;;;;;;;;;;;;18.97;78.64;99740.84;4974480;28;20035;-64
2022/09/24 15:22:27;;;;;;;3.72;2.70;;;;;;;18.88;79.55;99731.50;4973924;28;19918;-64
2022/09/24 15:24:54;;;;;;;3.70;2.83;;;;;;;18.83;81.11;99739.47;4974263;28;20053;-62
2022/09/24 15:27:23;;;;;;;3.37;2.83;;;;;;;18.83;80.69;99732.19;4974104;28;20405;-63
2022/09/24 15:29:49;;;;;;;3.75;2.65;;;;;;;18.67;81.50;99731.09;4974150;28;20301;-64
2022/09/24 15:32:17;;;;;;;5.25;2.85;;;;;;;18.62;82.62;99735.53;4973808;28;20034;-64
2022/09/24 15:34:43;;;;;;;4.00;3.13;;;;;;;18.48;83.12;99737.66;4973878;28;20137;-64
2022/09/24 15:37:11;;;;;;;6.00;3.67;;;;;;;18.34;84.30;99737.09;4973831;28;20130;-63
2022/09/24 15:39:37;;;;;;;4.40;3.28;;;;;;;18.21;85.41;99736.53;4973806;28;20039;-64
2022/09/24 15:42:03;;;;;;;5.45;3.33;;;;;;;18.22;85.92;99740.84;4973451;28;20046;-63
2022/09/24 15:44:29;;;;;;;5.57;3.25;;;;;;;18.04;88.74;99742.59;4973314;28;20477;-63
2022/09/24 15:46:54;;;;;;;6.72;2.90;;;;;;;18.03;89.68;99735.59;4973544;28;20039;-64
2022/09/24 15:49:21;;;;;;;6.97;3.13;;;;;;;17.98;92.67;99730.06;4973636;28;20050;-64
2022/09/24 15:51:52;;;;;;;6.45;3.22;;;;;;;17.95;94.04;99735.94;4973357;28;20035;-63
2022/09/24 15:54:18;;;;;;;4.15;3.22;;;;;;;17.97;94.73;99735.69;4972446;28;20058;-64
2022/09/24 15:56:45;;;;;;;5.22;3.40;;;;;;;17.99;95.35;99744.34;4973543;28;20494;-64
2022/09/24 15:59:13;;;;;;;5.18;3.33;;;;;;;17.90;95.55;99741.19;4973476;28;20058;-63
2022/09/24 16:01:38;;;;;;;;;;;;;;;17.82;97.28;99745.06;4973602;28;20161;-64
2022/09/24 16:04:04;;;;;;;5.97;3.33;;;;;;;17.76;97.48;99737.91;4956034;28;20362;-64
2022/09/24 16:06:29;;;;;;;4.78;3.40;;;;;;;17.72;98.62;99735.91;4973288;28;20042;-64
2022/09/24 16:08:55;;;;;;;6.65;3.97;;;;;;;17.70;99.44;99737.97;4973307;28;20415;-64
2022/09/24 16:11:20;;;;;;;5.32;3.20;;;;;;;17.61;100.00;99732.13;4972879;28;20043;-64
2022/09/24 16:13:48;;;;;;;5.78;3.83;;;;;;;17.58;100.00;99732.56;4973119;28;20049;-64
2022/09/24 16:16:13;;;;;;;;;;;;;;;17.55;100.00;99731.16;4973295;28;20034;-63